Astatula, Florida
Current Conditions -  °F | °C
As of 10:53 AM on Friday 28 Nov 2014 (Local Time) from KLEE Reporting Station
Clear Clear  
Wind Chill: 52°   Ceiling: Unl
Heat Index: 52°   Visibility: 10mi
Dew Point: 37°   Wind: 10mph
Humidity: 57%   Direction: 20°NNE
Pressure: 30.36"   Gusts: NA
Location:  28.71°N, 81.73°W
Report Text: KLEE 281553Z 02009KT 10SM CLR 11/03 A3036 RMK AO2 SLP280 T01110028
Loading
Personal Weather Stations






























Interactive Weather Map New forecast layout! Learn more

10-Day Weather Forecast

Advertisements
Track Severe Weather on mobile